Terminal Aerodrome Forecast
Issued by NWS

Home | Current Version | Previous Version | Text Only | Print | Product List | Glossary On
Versions: 1 2 3 4 5 6 7 8 9 10 11 12 13 14 15 16 17
000
FTUS46 KSEW 270500
TAFOLM
TAF
KOLM 270532Z 2706/2806 00000KT P6SM SCT005 OVC009
     FM270900 20003KT 1/2SM FG OVC004
     FM271300 22006KT 2SM -RA BR OVC005
     FM271800 23010G16KT P6SM -SHRA SCT010 BKN025 BKN040=

USA.gov is the U.S. government's official web portal to all federal, state and local government web resources and services.